sensor_id;sensor_type;location;lat;lon;timestamp;P1;durP1;ratioP1;P2;durP2;ratioP2
56045;SDS011;41913;51.030;3.706;2023-04-25T00:01:23;2.90;;;0.90;;
56045;SDS011;41913;51.030;3.706;2023-04-25T00:03:48;0.70;;;0.70;;
56045;SDS011;41913;51.030;3.706;2023-04-25T00:06:16;0.77;;;0.77;;
56045;SDS011;41913;51.030;3.706;2023-04-25T00:08:42;0.90;;;0.90;;
56045;SDS011;41913;51.030;3.706;2023-04-25T00:11:08;2.55;;;1.02;;
56045;SDS011;41913;51.030;3.706;2023-04-25T00:13:34;2.08;;;1.13;;
56045;SDS011;41913;51.030;3.706;2023-04-25T00:16:00;0.68;;;0.68;;
56045;SDS011;41913;51.030;3.706;2023-04-25T00:18:27;0.80;;;0.80;;
56045;SDS011;41913;51.030;3.706;2023-04-25T00:20:54;1.25;;;0.70;;
56045;SDS011;41913;51.030;3.706;2023-04-25T00:23:20;1.00;;;1.00;;
56045;SDS011;41913;51.030;3.706;2023-04-25T00:25:47;1.10;;;1.00;;
56045;SDS011;41913;51.030;3.706;2023-04-25T00:28:14;1.38;;;0.77;;
56045;SDS011;41913;51.030;3.706;2023-04-25T00:30:40;0.77;;;0.77;;
56045;SDS011;41913;51.030;3.706;2023-04-25T00:33:06;1.00;;;0.90;;
56045;SDS011;41913;51.030;3.706;2023-04-25T00:35:32;0.75;;;0.75;;
56045;SDS011;41913;51.030;3.706;2023-04-25T00:37:59;1.17;;;0.80;;
56045;SDS011;41913;51.030;3.706;2023-04-25T00:40:25;1.15;;;0.82;;
56045;SDS011;41913;51.030;3.706;2023-04-25T00:42:51;1.85;;;0.80;;
56045;SDS011;41913;51.030;3.706;2023-04-25T00:45:17;3.72;;;0.82;;
56045;SDS011;41913;51.030;3.706;2023-04-25T00:47:44;1.05;;;0.95;;
56045;SDS011;41913;51.030;3.706;2023-04-25T00:50:10;1.23;;;0.98;;
56045;SDS011;41913;51.030;3.706;2023-04-25T00:52:41;0.70;;;0.70;;
56045;SDS011;41913;51.030;3.706;2023-04-25T00:55:11;1.27;;;0.77;;
56045;SDS011;41913;51.030;3.706;2023-04-25T00:57:38;0.93;;;0.90;;
56045;SDS011;41913;51.030;3.706;2023-04-25T01:00:04;1.15;;;0.88;;
56045;SDS011;41913;51.030;3.706;2023-04-25T01:02:31;1.30;;;0.90;;
56045;SDS011;41913;51.030;3.706;2023-04-25T01:04:58;0.95;;;0.93;;
56045;SDS011;41913;51.030;3.706;2023-04-25T01:07:24;0.93;;;0.93;;
56045;SDS011;41913;51.030;3.706;2023-04-25T01:09:53;1.40;;;0.93;;
56045;SDS011;41913;51.030;3.706;2023-04-25T01:12:20;1.08;;;1.08;;
56045;SDS011;41913;51.030;3.706;2023-04-25T01:14:46;2.40;;;0.80;;
56045;SDS011;41913;51.030;3.706;2023-04-25T01:17:12;2.33;;;0.95;;
56045;SDS011;41913;51.030;3.706;2023-04-25T01:19:38;2.88;;;0.93;;
56045;SDS011;41913;51.030;3.706;2023-04-25T01:22:04;1.60;;;1.15;;
56045;SDS011;41913;51.030;3.706;2023-04-25T01:24:33;1.65;;;0.65;;
56045;SDS011;41913;51.030;3.706;2023-04-25T01:27:01;0.95;;;0.80;;
56045;SDS011;41913;51.030;3.706;2023-04-25T01:29:28;1.38;;;0.90;;
56045;SDS011;41913;51.030;3.706;2023-04-25T01:31:54;1.08;;;0.75;;
56045;SDS011;41913;51.030;3.706;2023-04-25T01:34:20;1.33;;;1.00;;
56045;SDS011;41913;51.030;3.706;2023-04-25T01:36:47;1.25;;;0.80;;
56045;SDS011;41913;51.030;3.706;2023-04-25T01:39:15;0.77;;;0.77;;
56045;SDS011;41913;51.030;3.706;2023-04-25T01:41:43;1.48;;;0.82;;
56045;SDS011;41913;51.030;3.706;2023-04-25T01:44:09;2.05;;;0.80;;
56045;SDS011;41913;51.030;3.706;2023-04-25T01:46:35;1.52;;;0.70;;
56045;SDS011;41913;51.030;3.706;2023-04-25T01:49:01;2.15;;;1.10;;
56045;SDS011;41913;51.030;3.706;2023-04-25T01:51:27;2.38;;;0.90;;
56045;SDS011;41913;51.030;3.706;2023-04-25T01:53:53;1.42;;;0.98;;
56045;SDS011;41913;51.030;3.706;2023-04-25T01:56:20;0.80;;;0.80;;
56045;SDS011;41913;51.030;3.706;2023-04-25T01:58:46;1.77;;;0.80;;
56045;SDS011;41913;51.030;3.706;2023-04-25T02:01:12;4.38;;;0.90;;
56045;SDS011;41913;51.030;3.706;2023-04-25T02:03:37;1.13;;;0.82;;
56045;SDS011;41913;51.030;3.706;2023-04-25T02:06:06;1.00;;;0.80;;
56045;SDS011;41913;51.030;3.706;2023-04-25T02:08:33;0.70;;;0.70;;
56045;SDS011;41913;51.030;3.706;2023-04-25T02:11:00;1.58;;;1.05;;
56045;SDS011;41913;51.030;3.706;2023-04-25T02:13:26;1.45;;;0.88;;
56045;SDS011;41913;51.030;3.706;2023-04-25T02:15:52;0.93;;;0.80;;
56045;SDS011;41913;51.030;3.706;2023-04-25T02:18:18;0.70;;;0.70;;
56045;SDS011;41913;51.030;3.706;2023-04-25T02:20:45;0.55;;;0.55;;
56045;SDS011;41913;51.030;3.706;2023-04-25T02:23:11;0.70;;;0.70;;
56045;SDS011;41913;51.030;3.706;2023-04-25T02:25:38;0.55;;;0.55;;
56045;SDS011;41913;51.030;3.706;2023-04-25T02:28:03;0.93;;;0.90;;
56045;SDS011;41913;51.030;3.706;2023-04-25T02:30:29;1.15;;;0.70;;
56045;SDS011;41913;51.030;3.706;2023-04-25T02:32:55;1.73;;;0.80;;
56045;SDS011;41913;51.030;3.706;2023-04-25T02:35:21;0.63;;;0.63;;
56045;SDS011;41913;51.030;3.706;2023-04-25T02:37:47;1.42;;;0.95;;
56045;SDS011;41913;51.030;3.706;2023-04-25T02:40:13;1.60;;;1.17;;
56045;SDS011;41913;51.030;3.706;2023-04-25T02:42:38;1.42;;;1.08;;
56045;SDS011;41913;51.030;3.706;2023-04-25T02:45:04;0.82;;;0.80;;
56045;SDS011;41913;51.030;3.706;2023-04-25T02:47:30;0.70;;;0.60;;
56045;SDS011;41913;51.030;3.706;2023-04-25T02:49:56;0.70;;;0.63;;
56045;SDS011;41913;51.030;3.706;2023-04-25T02:52:21;1.13;;;0.80;;
56045;SDS011;41913;51.030;3.706;2023-04-25T02:54:47;0.73;;;0.70;;
56045;SDS011;41913;51.030;3.706;2023-04-25T02:57:13;1.77;;;0.77;;
56045;SDS011;41913;51.030;3.706;2023-04-25T02:59:39;0.88;;;0.88;;
56045;SDS011;41913;51.030;3.706;2023-04-25T03:02:04;0.90;;;0.90;;
56045;SDS011;41913;51.030;3.706;2023-04-25T03:04:30;1.25;;;1.10;;
56045;SDS011;41913;51.030;3.706;2023-04-25T03:06:56;1.13;;;0.93;;
56045;SDS011;41913;51.030;3.706;2023-04-25T03:09:23;0.70;;;0.70;;
56045;SDS011;41913;51.030;3.706;2023-04-25T03:11:48;0.88;;;0.80;;
56045;SDS011;41913;51.030;3.706;2023-04-25T03:14:15;0.60;;;0.60;;
56045;SDS011;41913;51.030;3.706;2023-04-25T03:16:41;1.38;;;0.82;;
56045;SDS011;41913;51.030;3.706;2023-04-25T03:19:06;0.93;;;0.70;;
56045;SDS011;41913;51.030;3.706;2023-04-25T03:21:33;1.05;;;0.70;;
56045;SDS011;41913;51.030;3.706;2023-04-25T03:24:00;1.05;;;0.68;;
56045;SDS011;41913;51.030;3.706;2023-04-25T03:26:27;1.77;;;1.08;;
56045;SDS011;41913;51.030;3.706;2023-04-25T03:28:53;1.42;;;0.90;;
56045;SDS011;41913;51.030;3.706;2023-04-25T03:31:19;0.80;;;0.80;;
56045;SDS011;41913;51.030;3.706;2023-04-25T03:33:45;1.20;;;1.10;;
56045;SDS011;41913;51.030;3.706;2023-04-25T03:36:10;1.77;;;0.77;;
56045;SDS011;41913;51.030;3.706;2023-04-25T03:38:36;0.80;;;0.80;;
56045;SDS011;41913;51.030;3.706;2023-04-25T03:41:02;2.55;;;0.80;;
56045;SDS011;41913;51.030;3.706;2023-04-25T03:43:28;1.77;;;0.82;;
56045;SDS011;41913;51.030;3.706;2023-04-25T03:45:54;1.30;;;0.70;;
56045;SDS011;41913;51.030;3.706;2023-04-25T03:48:19;0.50;;;0.50;;
56045;SDS011;41913;51.030;3.706;2023-04-25T03:50:51;0.63;;;0.63;;
56045;SDS011;41913;51.030;3.706;2023-04-25T03:53:17;0.60;;;0.60;;
56045;SDS011;41913;51.030;3.706;2023-04-25T03:55:44;1.50;;;0.77;;
56045;SDS011;41913;51.030;3.706;2023-04-25T03:58:10;0.90;;;0.90;;
56045;SDS011;41913;51.030;3.706;2023-04-25T04:00:35;0.75;;;0.75;;
56045;SDS011;41913;51.030;3.706;2023-04-25T04:03:01;0.70;;;0.70;;
56045;SDS011;41913;51.030;3.706;2023-04-25T04:05:28;0.73;;;0.65;;
56045;SDS011;41913;51.030;3.706;2023-04-25T04:07:54;0.70;;;0.70;;
56045;SDS011;41913;51.030;3.706;2023-04-25T04:10:20;0.40;;;0.40;;
56045;SDS011;41913;51.030;3.706;2023-04-25T04:12:46;0.70;;;0.68;;
56045;SDS011;41913;51.030;3.706;2023-04-25T04:15:12;0.75;;;0.70;;
56045;SDS011;41913;51.030;3.706;2023-04-25T04:17:39;0.77;;;0.77;;
56045;SDS011;41913;51.030;3.706;2023-04-25T04:20:06;1.70;;;0.63;;
56045;SDS011;41913;51.030;3.706;2023-04-25T04:22:33;1.10;;;0.65;;
56045;SDS011;41913;51.030;3.706;2023-04-25T04:24:58;0.70;;;0.70;;
56045;SDS011;41913;51.030;3.706;2023-04-25T04:27:24;1.10;;;0.82;;
56045;SDS011;41913;51.030;3.706;2023-04-25T04:29:50;1.48;;;0.82;;
56045;SDS011;41913;51.030;3.706;2023-04-25T04:32:17;1.10;;;0.60;;
56045;SDS011;41913;51.030;3.706;2023-04-25T04:34:43;1.20;;;0.80;;
56045;SDS011;41913;51.030;3.706;2023-04-25T04:37:09;0.65;;;0.65;;
56045;SDS011;41913;51.030;3.706;2023-04-25T04:39:38;0.60;;;0.60;;
56045;SDS011;41913;51.030;3.706;2023-04-25T04:42:03;0.77;;;0.77;;
56045;SDS011;41913;51.030;3.706;2023-04-25T04:44:30;1.08;;;0.80;;
56045;SDS011;41913;51.030;3.706;2023-04-25T04:46:59;0.80;;;0.80;;
56045;SDS011;41913;51.030;3.706;2023-04-25T04:49:25;0.98;;;0.90;;
56045;SDS011;41913;51.030;3.706;2023-04-25T04:51:51;0.77;;;0.77;;
56045;SDS011;41913;51.030;3.706;2023-04-25T04:54:17;0.82;;;0.82;;
56045;SDS011;41913;51.030;3.706;2023-04-25T04:56:42;0.52;;;0.52;;
56045;SDS011;41913;51.030;3.706;2023-04-25T04:59:08;0.57;;;0.50;;
56045;SDS011;41913;51.030;3.706;2023-04-25T05:01:34;0.60;;;0.60;;
56045;SDS011;41913;51.030;3.706;2023-04-25T05:04:03;1.35;;;0.93;;
56045;SDS011;41913;51.030;3.706;2023-04-25T05:06:29;0.65;;;0.65;;
56045;SDS011;41913;51.030;3.706;2023-04-25T05:08:55;1.75;;;0.85;;
56045;SDS011;41913;51.030;3.706;2023-04-25T05:11:21;1.92;;;0.88;;
56045;SDS011;41913;51.030;3.706;2023-04-25T05:13:49;1.33;;;0.73;;
56045;SDS011;41913;51.030;3.706;2023-04-25T05:16:16;0.73;;;0.70;;
56045;SDS011;41913;51.030;3.706;2023-04-25T05:18:42;1.13;;;1.00;;
56045;SDS011;41913;51.030;3.706;2023-04-25T05:21:07;2.13;;;0.90;;
56045;SDS011;41913;51.030;3.706;2023-04-25T05:23:33;5.68;;;1.73;;
56045;SDS011;41913;51.030;3.706;2023-04-25T05:25:59;8.13;;;1.75;;
56045;SDS011;41913;51.030;3.706;2023-04-25T05:28:25;8.68;;;1.88;;
56045;SDS011;41913;51.030;3.706;2023-04-25T05:30:50;3.15;;;1.27;;
56045;SDS011;41913;51.030;3.706;2023-04-25T05:33:16;7.35;;;1.33;;
56045;SDS011;41913;51.030;3.706;2023-04-25T05:35:42;7.55;;;1.60;;
56045;SDS011;41913;51.030;3.706;2023-04-25T05:38:08;6.22;;;1.55;;
56045;SDS011;41913;51.030;3.706;2023-04-25T05:40:34;7.00;;;1.65;;
56045;SDS011;41913;51.030;3.706;2023-04-25T05:42:59;5.20;;;1.27;;
56045;SDS011;41913;51.030;3.706;2023-04-25T05:45:25;1.75;;;1.23;;
56045;SDS011;41913;51.030;3.706;2023-04-25T05:47:51;2.28;;;1.35;;
56045;SDS011;41913;51.030;3.706;2023-04-25T05:50:17;3.38;;;1.60;;
56045;SDS011;41913;51.030;3.706;2023-04-25T05:52:43;2.30;;;1.13;;
56045;SDS011;41913;51.030;3.706;2023-04-25T05:55:08;2.38;;;1.30;;
56045;SDS011;41913;51.030;3.706;2023-04-25T05:57:35;2.58;;;1.50;;
56045;SDS011;41913;51.030;3.706;2023-04-25T06:00:01;1.23;;;1.10;;
56045;SDS011;41913;51.030;3.706;2023-04-25T06:02:28;1.15;;;0.90;;
56045;SDS011;41913;51.030;3.706;2023-04-25T06:04:54;1.80;;;1.05;;
56045;SDS011;41913;51.030;3.706;2023-04-25T06:07:20;2.15;;;1.08;;
56045;SDS011;41913;51.030;3.706;2023-04-25T06:09:46;2.88;;;1.35;;
56045;SDS011;41913;51.030;3.706;2023-04-25T06:12:11;1.98;;;1.30;;
56045;SDS011;41913;51.030;3.706;2023-04-25T06:14:38;1.60;;;1.17;;
56045;SDS011;41913;51.030;3.706;2023-04-25T06:17:04;2.38;;;1.27;;
56045;SDS011;41913;51.030;3.706;2023-04-25T06:19:33;1.63;;;1.25;;
56045;SDS011;41913;51.030;3.706;2023-04-25T06:22:00;0.90;;;0.90;;
56045;SDS011;41913;51.030;3.706;2023-04-25T06:24:26;1.40;;;0.90;;
56045;SDS011;41913;51.030;3.706;2023-04-25T06:26:54;1.60;;;1.10;;
56045;SDS011;41913;51.030;3.706;2023-04-25T06:29:21;2.40;;;1.00;;
56045;SDS011;41913;51.030;3.706;2023-04-25T06:31:47;0.82;;;0.82;;
56045;SDS011;41913;51.030;3.706;2023-04-25T06:34:12;1.08;;;0.80;;
56045;SDS011;41913;51.030;3.706;2023-04-25T06:36:38;0.88;;;0.88;;
56045;SDS011;41913;51.030;3.706;2023-04-25T06:39:04;1.88;;;0.90;;
56045;SDS011;41913;51.030;3.706;2023-04-25T06:41:30;0.82;;;0.80;;
56045;SDS011;41913;51.030;3.706;2023-04-25T06:43:55;6.97;;;0.93;;
56045;SDS011;41913;51.030;3.706;2023-04-25T06:46:21;0.75;;;0.68;;
56045;SDS011;41913;51.030;3.706;2023-04-25T06:48:47;1.17;;;0.80;;
56045;SDS011;41913;51.030;3.706;2023-04-25T06:51:12;2.50;;;1.23;;
56045;SDS011;41913;51.030;3.706;2023-04-25T06:53:38;1.02;;;0.80;;
56045;SDS011;41913;51.030;3.706;2023-04-25T06:56:05;1.33;;;0.93;;
56045;SDS011;41913;51.030;3.706;2023-04-25T06:58:32;0.98;;;0.93;;
56045;SDS011;41913;51.030;3.706;2023-04-25T07:00:58;0.82;;;0.82;;
56045;SDS011;41913;51.030;3.706;2023-04-25T07:03:24;1.38;;;0.60;;
56045;SDS011;41913;51.030;3.706;2023-04-25T07:05:49;1.02;;;0.82;;
56045;SDS011;41913;51.030;3.706;2023-04-25T07:08:16;0.68;;;0.68;;
56045;SDS011;41913;51.030;3.706;2023-04-25T07:10:42;0.75;;;0.75;;
56045;SDS011;41913;51.030;3.706;2023-04-25T07:13:08;1.10;;;0.63;;
56045;SDS011;41913;51.030;3.706;2023-04-25T07:15:33;1.73;;;0.80;;
56045;SDS011;41913;51.030;3.706;2023-04-25T07:17:59;0.88;;;0.70;;
56045;SDS011;41913;51.030;3.706;2023-04-25T07:20:25;1.67;;;1.02;;
56045;SDS011;41913;51.030;3.706;2023-04-25T07:22:53;0.65;;;0.60;;
56045;SDS011;41913;51.030;3.706;2023-04-25T07:25:19;0.60;;;0.45;;
56045;SDS011;41913;51.030;3.706;2023-04-25T07:27:45;0.65;;;0.63;;
56045;SDS011;41913;51.030;3.706;2023-04-25T07:30:11;1.08;;;0.77;;
56045;SDS011;41913;51.030;3.706;2023-04-25T07:32:37;1.95;;;0.70;;
56045;SDS011;41913;51.030;3.706;2023-04-25T07:35:04;1.10;;;0.50;;
56045;SDS011;41913;51.030;3.706;2023-04-25T07:37:32;0.63;;;0.63;;
56045;SDS011;41913;51.030;3.706;2023-04-25T07:39:58;1.85;;;0.50;;
56045;SDS011;41913;51.030;3.706;2023-04-25T07:42:24;0.60;;;0.60;;
56045;SDS011;41913;51.030;3.706;2023-04-25T07:44:50;0.75;;;0.75;;
56045;SDS011;41913;51.030;3.706;2023-04-25T07:47:17;0.60;;;0.60;;
56045;SDS011;41913;51.030;3.706;2023-04-25T07:49:44;0.88;;;0.75;;
56045;SDS011;41913;51.030;3.706;2023-04-25T07:52:10;0.60;;;0.60;;
56045;SDS011;41913;51.030;3.706;2023-04-25T07:54:36;1.33;;;0.85;;
56045;SDS011;41913;51.030;3.706;2023-04-25T07:57:02;2.35;;;0.93;;
56045;SDS011;41913;51.030;3.706;2023-04-25T07:59:28;0.75;;;0.60;;
56045;SDS011;41913;51.030;3.706;2023-04-25T08:01:53;1.65;;;0.60;;
56045;SDS011;41913;51.030;3.706;2023-04-25T08:04:19;1.85;;;0.60;;
56045;SDS011;41913;51.030;3.706;2023-04-25T08:06:45;2.17;;;0.85;;
56045;SDS011;41913;51.030;3.706;2023-04-25T08:09:11;0.60;;;0.60;;
56045;SDS011;41913;51.030;3.706;2023-04-25T08:11:37;0.73;;;0.70;;
56045;SDS011;41913;51.030;3.706;2023-04-25T08:14:03;0.60;;;0.60;;
56045;SDS011;41913;51.030;3.706;2023-04-25T08:16:30;0.93;;;0.55;;
56045;SDS011;41913;51.030;3.706;2023-04-25T08:18:55;0.40;;;0.40;;
56045;SDS011;41913;51.030;3.706;2023-04-25T08:21:22;1.70;;;0.68;;
56045;SDS011;41913;51.030;3.706;2023-04-25T08:23:48;1.17;;;0.63;;
56045;SDS011;41913;51.030;3.706;2023-04-25T08:26:13;1.17;;;0.52;;
56045;SDS011;41913;51.030;3.706;2023-04-25T08:28:40;1.02;;;0.60;;
56045;SDS011;41913;51.030;3.706;2023-04-25T08:31:05;1.17;;;0.55;;
56045;SDS011;41913;51.030;3.706;2023-04-25T08:33:31;0.40;;;0.40;;
56045;SDS011;41913;51.030;3.706;2023-04-25T08:35:57;0.85;;;0.80;;
56045;SDS011;41913;51.030;3.706;2023-04-25T08:38:24;0.60;;;0.60;;
56045;SDS011;41913;51.030;3.706;2023-04-25T08:40:50;1.48;;;0.60;;
56045;SDS011;41913;51.030;3.706;2023-04-25T08:43:17;1.60;;;0.68;;
56045;SDS011;41913;51.030;3.706;2023-04-25T08:45:45;1.48;;;0.45;;
56045;SDS011;41913;51.030;3.706;2023-04-25T08:48:12;1.40;;;0.65;;
56045;SDS011;41913;51.030;3.706;2023-04-25T08:50:39;1.08;;;0.60;;
56045;SDS011;41913;51.030;3.706;2023-04-25T08:53:29;0.80;;;0.60;;
56045;SDS011;41913;51.030;3.706;2023-04-25T08:55:57;2.95;;;0.40;;
56045;SDS011;41913;51.030;3.706;2023-04-25T08:58:24;1.42;;;0.50;;
56045;SDS011;41913;51.030;3.706;2023-04-25T09:00:50;0.45;;;0.45;;
56045;SDS011;41913;51.030;3.706;2023-04-25T09:03:17;2.92;;;0.60;;
56045;SDS011;41913;51.030;3.706;2023-04-25T09:05:43;0.85;;;0.75;;
56045;SDS011;41913;51.030;3.706;2023-04-25T09:08:09;1.00;;;0.50;;
56045;SDS011;41913;51.030;3.706;2023-04-25T09:10:35;5.00;;;1.17;;
56045;SDS011;41913;51.030;3.706;2023-04-25T09:13:06;4.90;;;0.60;;
56045;SDS011;41913;51.030;3.706;2023-04-25T09:15:50;2.97;;;1.10;;
56045;SDS011;41913;51.030;3.706;2023-04-25T09:18:33;2.70;;;1.00;;
56045;SDS011;41913;51.030;3.706;2023-04-25T09:21:09;1.98;;;0.82;;
56045;SDS011;41913;51.030;3.706;2023-04-25T09:23:54;1.48;;;1.20;;
56045;SDS011;41913;51.030;3.706;2023-04-25T09:26:21;1.42;;;0.98;;
56045;SDS011;41913;51.030;3.706;2023-04-25T09:28:49;7.93;;;1.30;;
56045;SDS011;41913;51.030;3.706;2023-04-25T09:31:29;0.50;;;0.50;;
56045;SDS011;41913;51.030;3.706;2023-04-25T09:34:01;1.58;;;0.80;;
56045;SDS011;41913;51.030;3.706;2023-04-25T09:36:26;0.70;;;0.45;;
56045;SDS011;41913;51.030;3.706;2023-04-25T09:38:54;4.22;;;0.90;;
56045;SDS011;41913;51.030;3.706;2023-04-25T09:41:24;1.95;;;0.80;;
56045;SDS011;41913;51.030;3.706;2023-04-25T09:43:50;1.48;;;0.70;;
56045;SDS011;41913;51.030;3.706;2023-04-25T09:46:16;5.28;;;1.05;;
56045;SDS011;41913;51.030;3.706;2023-04-25T09:48:49;1.92;;;0.68;;
56045;SDS011;41913;51.030;3.706;2023-04-25T09:51:16;0.60;;;0.60;;
56045;SDS011;41913;51.030;3.706;2023-04-25T09:53:46;1.30;;;0.70;;
56045;SDS011;41913;51.030;3.706;2023-04-25T09:56:15;0.60;;;0.60;;
56045;SDS011;41913;51.030;3.706;2023-04-25T09:58:42;0.63;;;0.60;;
56045;SDS011;41913;51.030;3.706;2023-04-25T10:01:08;1.67;;;0.63;;
56045;SDS011;41913;51.030;3.706;2023-04-25T10:03:39;0.60;;;0.45;;
56045;SDS011;41913;51.030;3.706;2023-04-25T10:06:16;1.10;;;0.73;;
56045;SDS011;41913;51.030;3.706;2023-04-25T10:08:46;0.75;;;0.75;;
56045;SDS011;41913;51.030;3.706;2023-04-25T10:11:16;0.65;;;0.65;;
56045;SDS011;41913;51.030;3.706;2023-04-25T10:13:42;0.52;;;0.52;;
56045;SDS011;41913;51.030;3.706;2023-04-25T10:16:09;1.70;;;0.50;;
56045;SDS011;41913;51.030;3.706;2023-04-25T10:18:36;2.42;;;0.47;;
56045;SDS011;41913;51.030;3.706;2023-04-25T10:21:03;2.05;;;0.75;;
56045;SDS011;41913;51.030;3.706;2023-04-25T10:23:31;4.57;;;0.93;;
56045;SDS011;41913;51.030;3.706;2023-04-25T10:25:59;4.95;;;1.02;;
56045;SDS011;41913;51.030;3.706;2023-04-25T10:28:25;4.05;;;0.47;;
56045;SDS011;41913;51.030;3.706;2023-04-25T10:31:01;1.60;;;0.68;;
56045;SDS011;41913;51.030;3.706;2023-04-25T10:36:14;0.98;;;0.55;;
56045;SDS011;41913;51.030;3.706;2023-04-25T10:38:43;0.60;;;0.60;;
56045;SDS011;41913;51.030;3.706;2023-04-25T10:41:11;3.10;;;0.60;;
56045;SDS011;41913;51.030;3.706;2023-04-25T10:43:38;1.10;;;0.80;;
56045;SDS011;41913;51.030;3.706;2023-04-25T10:48:53;1.23;;;0.47;;
56045;SDS011;41913;51.030;3.706;2023-04-25T10:51:29;0.55;;;0.45;;
56045;SDS011;41913;51.030;3.706;2023-04-25T10:56:27;2.10;;;0.40;;
56045;SDS011;41913;51.030;3.706;2023-04-25T10:59:26;0.55;;;0.40;;
56045;SDS011;41913;51.030;3.706;2023-04-25T11:01:51;1.17;;;0.50;;
56045;SDS011;41913;51.030;3.706;2023-04-25T11:04:21;0.40;;;0.40;;
56045;SDS011;41913;51.030;3.706;2023-04-25T11:09:28;0.50;;;0.50;;
56045;SDS011;41913;51.030;3.706;2023-04-25T11:11:54;0.75;;;0.30;;
56045;SDS011;41913;51.030;3.706;2023-04-25T11:14:20;0.68;;;0.68;;
56045;SDS011;41913;51.030;3.706;2023-04-25T11:16:46;0.38;;;0.30;;
56045;SDS011;41913;51.030;3.706;2023-04-25T11:19:13;2.10;;;0.30;;
56045;SDS011;41913;51.030;3.706;2023-04-25T11:21:38;0.47;;;0.38;;
56045;SDS011;41913;51.030;3.706;2023-04-25T11:24:05;0.30;;;0.30;;
56045;SDS011;41913;51.030;3.706;2023-04-25T11:26:31;0.40;;;0.40;;
56045;SDS011;41913;51.030;3.706;2023-04-25T11:28:57;0.55;;;0.47;;
56045;SDS011;41913;51.030;3.706;2023-04-25T11:31:25;0.50;;;0.40;;
56045;SDS011;41913;51.030;3.706;2023-04-25T11:33:53;0.77;;;0.60;;
56045;SDS011;41913;51.030;3.706;2023-04-25T11:36:22;0.55;;;0.38;;
56045;SDS011;41913;51.030;3.706;2023-04-25T11:38:52;0.30;;;0.30;;
56045;SDS011;41913;51.030;3.706;2023-04-25T11:41:19;0.65;;;0.40;;
56045;SDS011;41913;51.030;3.706;2023-04-25T11:43:47;0.30;;;0.30;;
56045;SDS011;41913;51.030;3.706;2023-04-25T11:46:15;1.67;;;0.57;;
56045;SDS011;41913;51.030;3.706;2023-04-25T11:48:41;0.70;;;0.30;;
56045;SDS011;41913;51.030;3.706;2023-04-25T11:51:08;0.82;;;0.43;;
56045;SDS011;41913;51.030;3.706;2023-04-25T11:53:34;0.63;;;0.47;;
56045;SDS011;41913;51.030;3.706;2023-04-25T11:56:00;0.30;;;0.30;;
56045;SDS011;41913;51.030;3.706;2023-04-25T11:58:28;0.68;;;0.40;;
56045;SDS011;41913;51.030;3.706;2023-04-25T12:00:54;0.28;;;0.28;;
56045;SDS011;41913;51.030;3.706;2023-04-25T12:03:25;0.45;;;0.30;;
56045;SDS011;41913;51.030;3.706;2023-04-25T12:06:01;0.35;;;0.30;;
56045;SDS011;41913;51.030;3.706;2023-04-25T12:08:28;0.35;;;0.22;;
56045;SDS011;41913;51.030;3.706;2023-04-25T12:10:57;1.02;;;0.52;;
56045;SDS011;41913;51.030;3.706;2023-04-25T12:13:25;0.55;;;0.50;;
56045;SDS011;41913;51.030;3.706;2023-04-25T12:15:57;0.20;;;0.20;;
56045;SDS011;41913;51.030;3.706;2023-04-25T12:18:23;0.70;;;0.32;;
56045;SDS011;41913;51.030;3.706;2023-04-25T12:20:52;0.30;;;0.30;;
56045;SDS011;41913;51.030;3.706;2023-04-25T12:23:24;0.55;;;0.20;;
56045;SDS011;41913;51.030;3.706;2023-04-25T12:25:52;0.95;;;0.30;;
56045;SDS011;41913;51.030;3.706;2023-04-25T12:28:19;0.40;;;0.20;;
56045;SDS011;41913;51.030;3.706;2023-04-25T12:30:55;0.30;;;0.30;;
56045;SDS011;41913;51.030;3.706;2023-04-25T12:33:30;0.32;;;0.30;;
56045;SDS011;41913;51.030;3.706;2023-04-25T12:36:03;0.63;;;0.40;;
56045;SDS011;41913;51.030;3.706;2023-04-25T12:38:41;0.28;;;0.28;;
56045;SDS011;41913;51.030;3.706;2023-04-25T12:41:07;0.65;;;0.65;;
56045;SDS011;41913;51.030;3.706;2023-04-25T12:43:33;0.40;;;0.40;;
56045;SDS011;41913;51.030;3.706;2023-04-25T12:45:59;0.43;;;0.30;;
56045;SDS011;41913;51.030;3.706;2023-04-25T12:48:25;0.70;;;0.35;;
56045;SDS011;41913;51.030;3.706;2023-04-25T12:50:51;0.63;;;0.50;;
56045;SDS011;41913;51.030;3.706;2023-04-25T12:53:18;0.40;;;0.40;;
56045;SDS011;41913;51.030;3.706;2023-04-25T12:55:47;0.25;;;0.25;;
56045;SDS011;41913;51.030;3.706;2023-04-25T12:58:15;0.40;;;0.30;;
56045;SDS011;41913;51.030;3.706;2023-04-25T13:00:42;0.43;;;0.43;;
56045;SDS011;41913;51.030;3.706;2023-04-25T13:03:09;0.20;;;0.20;;
56045;SDS011;41913;51.030;3.706;2023-04-25T13:05:38;0.30;;;0.30;;
56045;SDS011;41913;51.030;3.706;2023-04-25T13:08:04;0.32;;;0.20;;
56045;SDS011;41913;51.030;3.706;2023-04-25T13:10:30;0.43;;;0.40;;
56045;SDS011;41913;51.030;3.706;2023-04-25T13:12:56;0.25;;;0.25;;
56045;SDS011;41913;51.030;3.706;2023-04-25T13:15:22;0.65;;;0.25;;
56045;SDS011;41913;51.030;3.706;2023-04-25T13:17:48;0.85;;;0.40;;
56045;SDS011;41913;51.030;3.706;2023-04-25T13:20:14;0.60;;;0.30;;
56045;SDS011;41913;51.030;3.706;2023-04-25T13:22:40;0.70;;;0.50;;
56045;SDS011;41913;51.030;3.706;2023-04-25T13:25:10;0.30;;;0.30;;
56045;SDS011;41913;51.030;3.706;2023-04-25T13:27:36;0.35;;;0.35;;
56045;SDS011;41913;51.030;3.706;2023-04-25T13:30:05;0.98;;;0.32;;
56045;SDS011;41913;51.030;3.706;2023-04-25T13:32:35;1.00;;;0.63;;
56045;SDS011;41913;51.030;3.706;2023-04-25T13:35:02;0.77;;;0.32;;
56045;SDS011;41913;51.030;3.706;2023-04-25T13:37:29;0.40;;;0.40;;
56045;SDS011;41913;51.030;3.706;2023-04-25T13:39:58;0.85;;;0.50;;
56045;SDS011;41913;51.030;3.706;2023-04-25T13:42:25;0.55;;;0.40;;
56045;SDS011;41913;51.030;3.706;2023-04-25T13:44:51;0.40;;;0.32;;
56045;SDS011;41913;51.030;3.706;2023-04-25T13:47:16;0.50;;;0.38;;
56045;SDS011;41913;51.030;3.706;2023-04-25T13:49:42;0.30;;;0.30;;
56045;SDS011;41913;51.030;3.706;2023-04-25T13:52:08;0.20;;;0.20;;
56045;SDS011;41913;51.030;3.706;2023-04-25T13:54:34;0.40;;;0.40;;
56045;SDS011;41913;51.030;3.706;2023-04-25T13:56:59;0.65;;;0.50;;
56045;SDS011;41913;51.030;3.706;2023-04-25T13:59:27;0.40;;;0.30;;
56045;SDS011;41913;51.030;3.706;2023-04-25T14:01:53;0.32;;;0.32;;
56045;SDS011;41913;51.030;3.706;2023-04-25T14:04:18;0.20;;;0.20;;
56045;SDS011;41913;51.030;3.706;2023-04-25T14:06:44;0.52;;;0.52;;
56045;SDS011;41913;51.030;3.706;2023-04-25T14:09:10;0.50;;;0.40;;
56045;SDS011;41913;51.030;3.706;2023-04-25T14:11:38;0.30;;;0.30;;
56045;SDS011;41913;51.030;3.706;2023-04-25T14:14:04;0.80;;;0.30;;
56045;SDS011;41913;51.030;3.706;2023-04-25T14:16:30;0.20;;;0.20;;
56045;SDS011;41913;51.030;3.706;2023-04-25T14:18:59;0.55;;;0.50;;
56045;SDS011;41913;51.030;3.706;2023-04-25T14:21:25;0.98;;;0.60;;
56045;SDS011;41913;51.030;3.706;2023-04-25T14:23:52;1.45;;;0.43;;
56045;SDS011;41913;51.030;3.706;2023-04-25T14:26:17;0.45;;;0.30;;
56045;SDS011;41913;51.030;3.706;2023-04-25T14:28:43;0.65;;;0.65;;
56045;SDS011;41913;51.030;3.706;2023-04-25T14:31:09;0.22;;;0.22;;
56045;SDS011;41913;51.030;3.706;2023-04-25T14:33:35;0.90;;;0.40;;
56045;SDS011;41913;51.030;3.706;2023-04-25T14:36:02;0.40;;;0.40;;
56045;SDS011;41913;51.030;3.706;2023-04-25T14:38:28;1.10;;;0.28;;
56045;SDS011;41913;51.030;3.706;2023-04-25T14:40:54;0.20;;;0.20;;
56045;SDS011;41913;51.030;3.706;2023-04-25T14:43:19;0.50;;;0.50;;
56045;SDS011;41913;51.030;3.706;2023-04-25T14:45:45;0.95;;;0.40;;
56045;SDS011;41913;51.030;3.706;2023-04-25T14:48:11;0.45;;;0.40;;
56045;SDS011;41913;51.030;3.706;2023-04-25T14:50:37;0.28;;;0.28;;
56045;SDS011;41913;51.030;3.706;2023-04-25T14:53:02;0.25;;;0.25;;
56045;SDS011;41913;51.030;3.706;2023-04-25T14:55:28;1.05;;;0.35;;
56045;SDS011;41913;51.030;3.706;2023-04-25T14:57:54;0.43;;;0.25;;